View Sortable Currents For Network
ASOSAWOSCoCoRaHSCOOPDCPISUSM
SchoolNetOtherSCANMy FavoritesBy StateRWIS
RWIS SurfaceRWIS TrafficRWIS SoilBy NWS WFOUSCRN

Current AWOS Conditions

** This page will automatically refresh every five minutes.
Sorted by: (Peak Gust [knots])     Click on a column to sort it.

Add ID: Name: Ob Time   Wind [knots]   Rainfall
Temp (Hi / Lo) DewP Feels RH% Dir Speed Peak Gust
@ Time
Alti Vsby Hour Today
CSQCRESTON06:35 AM 1(5/-0) -0 50 910 @ 05:15 AM 30.52 10 0
SDASHENANDOAH MUNI06:35 AM -0(5/-2) -4 50 67 @ 03:55 AM 30.54 10 0
IKVANKENY06:35 AM -8(-4/-8) -11 -19 86 10 47 @ 06:15 AM 30.59 0.5 0
CWICLINTON05:56 AM -2(2/-3) -6 -10 83 280 37 @ 03:25 AM 30.62 6 0
TNUNEWTON MUNI06:35 AM -4(1/-4) -6 -19 91 30 77 @ 06:35 AM 30.57 8 0
OLZOELWEIN06:35 AM -9(-0/-11) -13 82 0 07 @ 02:55 AM 30.56 10 0
AIOATLANTIC06:35 AM -11(-6/-11) -13 -23 91 40 47 @ 03:15 AM 30.54 10 0
CBFCOUNCIL BLUFFS06:35 AM 3(9/3) 3 -8 100 110 57 @ 06:15 AM 30.5 10 0
CAVCLARION06:35 AM -15(-9/-17) -20 -27 77 90 47 @ 02:35 AM 30.54 10 0
ICLCLARINDA06:35 AM -0(1/-0) -4 20 67 @ 04:15 AM 30.56 10 0
EBSWebster City06:35 AM -15(-11/-15) -20 77 0 06 @ 05:35 AM 30.54 2.5 0
FFLFAIRFIELD06:35 AM 3(5/1) -2 -8 79 20 56 @ 06:15 AM 30.58 10 0
RDKRED OAK06:35 AM -6(5/-6) -9 -15 86 20 36 @ 05:55 AM 30.54 10 0
CNCCHARITON06:35 AM 3(5/1) 1 91 0 06 @ 05:35 AM 30.55 10 0
OXVKnoxville06:35 AM 1(3/-2) 1 100 0 05 @ 12:15 AM 30.56 8 0
BNWBOONE MUNI06:35 AM -8(3/-8) -11 -17 86 90 35 @ 02:15 AM 30.54 0.25 0
I75Osceola06:35 AM 3(6/1) -0 0 05 @ 12:55 AM 30.54 10 0
HNRHARLAN06:35 AM -9(-4/-9) -13 82 0 05 @ 03:35 AM 30.53 9 0
AWGWASHINGTON06:35 AM 3(5/-0) 1 -6 91 20 45 @ 03:35 AM 30.61 10 0
CCYCHARLES CITY06:35 AM -6(-2/-8) -11 78 0 05 @ 12:15 AM 30.56 8 0
MPZMOUNT PLEASANT06:35 AM 9(10/9) 7 1 91 20 44 @ 12:15 AM 30.59 10 0
HPTHampton06:35 AM -11(-2/-13) -20 63 0 04 @ 12:15 AM 30.54 0.25 0
SHLSHELDON06:35 AM -11(-9/-13) -13 91 0 04 @ 02:35 AM 30.48 10 0
OOAOskaloosa06:35 AM -3(0/-5) -6 -13 87 20 44 @ 12:15 AM 30.59 10 0
FODFORT DODGE06:29 AM -13(-6/-13) -17 -23 82 60 34 @ 06:17 AM 30.54 0.5 0 0
CINCARROLL06:35 AM -8(-6/-9) -9 95 0 04 @ 12:35 AM 30.54 0.25 0
SLBStorm Lake06:35 AM -2(5/-2) -4 -12 91 130 44 @ 03:35 AM 30.49 3 0
PROPerry 18 Feb 10:55 PMSite is Offline
DNSDENISON06:35 AM -4(-0/-6) -8 82 0 04 @ 12:15 AM 30.54 10 0
LRJLE MARS06:35 AM -9(-8/-13) -13 -18 82 360 34 @ 04:55 AM 30.52 10 0
EOKKEOKUK MUNI06:35 AM 14(18/14) 12 6 92 40 44 @ 12:35 AM 30.58 10 0
PEAPELLA06:35 AM -2(1/-2) -6 83 0 03 @ 01:35 AM 30.59 10 0
DEHDECORAH06:35 AM -2(3/-4) -4 91 0 03 @ 12:35 AM 30.56 10 0
IFAIowa Falls06:55 AM -8(-4/-11) -11 86 0 03 @ 12:55 AM 30.56 5 0
GGIGrinnell06:55 AM -4(-0/-6) -7 87 0 03 @ 12:15 AM 30.57 3 0
VTIVINTON06:55 AM -12(-4/-12) -17 78 0 03 @ 01:15 AM 30.6 10 0
MUTMUSCATINE06:35 AM 3(7/1) -2 79 0 03 @ 02:35 AM 30.63 10 0
AXAALGONA06:35 AM -13(-8/-15) -17 82 0 03 @ 05:55 AM 30.5 0.5 0
IIBINDEPENDENCE06:35 AM -10(-3/-12) -14 82 0 00 @ 06:00 PM 30.57 7 0
FSWFORT MADISON19 Feb 05:55 AM 12(12/12) 10 91 0 00 @ 06:00 PM 30.59 10 0
CKPCherokee06:35 AM -11(-9/-15) -15 82 0 00 @ 06:00 PM 30.53 7 0
ORCOrange City06:35 AM -4(1/-4) -8 82 0 00 @ 06:00 PM 30.48 5 0
ADUAUDUBON06:35 AM -11(-8/-11) -17 74 0 00 @ 06:00 PM 30.52 10 0
FXYForest City06:35 AM -13(-8/-13) -18 78 0 00 @ 06:00 PM 30.54 10 0